WetterOnline ( https://www.wetteronline.de )

Wetter aktuell Neunkirchen/Saarland

Aktuelles Wetter: Tholey (398m)

6-stündlich | Neueste Meldungen
Ortszeit Temperatur Wetter
Sa, 20.07. 2:00 17.5° C wolkig
Fr, 19.07. 20:00 21.9° C wolkig
Fr, 19.07. 14:00 21.2° C bewölkt
Fr, 19.07. 8:00 15.4° C bedeckt
Fr, 19.07. 2:00 19.3° C wolkig
Do, 18.07. 20:00 21.8° C bedeckt
Do, 18.07. 14:00 25.1° C wolkig
Do, 18.07. 8:00 14.6° C bedeckt
Ortszeit Temperatur Wetter
Sa, 20.07. 7:00 18.0° C leicht bewölkt
Sa, 20.07. 6:30 17.2° C leicht bewölkt
Sa, 20.07. 6:20 17.2° C leicht bewölkt
Sa, 20.07. 6:10 17.0° C wolkenlos
Sa, 20.07. 6:00 17.0° C fast wolkenlos
Sa, 20.07. 5:50 17.0° C fast wolkenlos
Sa, 20.07. 5:30 17.0° C wolkenlos
Sa, 20.07. 5:00 17.4° C wolkenlos
Sa, 20.07. 4:30 17.5° C wolkenlos
Sa, 20.07. 4:00 17.3° C wolkenlos
Sa, 20.07. 3:30 17.4° C leicht bewölkt
Ortszeit Relative Feuchte Sichtweite
Sa, 20.07. 2:00 79% 70 km
Fr, 19.07. 20:00 60% 70 km
Fr, 19.07. 14:00 64% 50 km
Fr, 19.07. 8:00 95% 15 km
Fr, 19.07. 2:00 59% 50 km
Do, 18.07. 20:00 48% 65 km
Do, 18.07. 14:00 35% 20 km
Do, 18.07. 8:00 83% 18 km
Ortszeit Relative Feuchte Sichtweite
Sa, 20.07. 7:00 76% 14 km
Sa, 20.07. 6:30 80% 55 km
Sa, 20.07. 6:20 80% -
Sa, 20.07. 6:10 81% -
Sa, 20.07. 6:00 80% 60 km
Sa, 20.07. 5:50 80% -
Sa, 20.07. 5:30 81% 70 km
Sa, 20.07. 5:00 79% 60 km
Sa, 20.07. 4:30 79% 70 km
Sa, 20.07. 4:00 80% 70 km
Sa, 20.07. 3:30 80% 55 km
Ortszeit Niederschlagsmenge Niederschlagsart
Sa, 20.07. 2:00 0.0 l/m2 in 6 Std. -
Fr, 19.07. 20:00 0.1 l/m2 in 12 Std. -
Fr, 19.07. 14:00 0.1 l/m2 in 6 Std. Regen
Fr, 19.07. 8:00 2 l/m2 in 12 Std. Regen
Fr, 19.07. 2:00 0.1 l/m2 in 6 Std. Regen
Do, 18.07. 20:00 0.0 l/m2 in 12 Std. -
Do, 18.07. 14:00 0.0 l/m2 in 6 Std. -
Do, 18.07. 8:00 0.0 l/m2 in 12 Std. -
Ortszeit Niederschlagsmenge Niederschlagsart
Sa, 20.07. 7:00 0.0 l/m2 in 1 Std. -
Sa, 20.07. 6:30 0.0 l/m2 in 1 Std. -
Sa, 20.07. 6:20 keine Meldung -
Sa, 20.07. 6:10 keine Meldung -
Sa, 20.07. 6:00 0.0 l/m2 in 1 Std. -
Sa, 20.07. 5:50 keine Meldung -
Sa, 20.07. 5:30 0.0 l/m2 in 1 Std. -
Sa, 20.07. 5:00 0.0 l/m2 in 1 Std. -
Sa, 20.07. 4:30 0.0 l/m2 in 1 Std. -
Sa, 20.07. 4:00 0.0 l/m2 in 1 Std. -
Sa, 20.07. 3:30 0.0 l/m2 in 1 Std. -
Ortszeit Stärke Spitze Richtung
km/h Bft. km/h Grad Sektor
Sa, 20.07. 2:00 9 2 17 50° NO
Fr, 19.07. 20:00 9 2 30 280° W
Fr, 19.07. 14:00 14 3 32 240° SW
Fr, 19.07. 8:00 7 2 40 260° W
Fr, 19.07. 2:00 4 1 29 300° NW
Do, 18.07. 20:00 17 3 39 290° W
Do, 18.07. 14:00 17 3 30 250° W
Do, 18.07. 8:00 4 1 22 70° O
Ortszeit Stärke Spitze Richtung
km/h Bft. km/h Grad Sektor
Sa, 20.07. 7:00 7 2 15 60° NO
Sa, 20.07. 6:30 9 2 15 50° NO
Sa, 20.07. 6:20 9 2 - 50° NO
Sa, 20.07. 6:10 11 2 - 60° NO
Sa, 20.07. 6:00 13 3 17 50° NO
Sa, 20.07. 5:50 13 3 - 50° NO
Sa, 20.07. 5:30 11 2 18 50° NO
Sa, 20.07. 5:00 13 3 17 50° NO
Sa, 20.07. 4:30 11 2 14 50° NO
Sa, 20.07. 4:00 11 2 14 50° NO
Sa, 20.07. 3:30 11 2 14 50° NO
Ortszeit Untergrenze Bedeckung Gattung
total tief tief mittel hoch
Sa, 20.07. 2:00 10500 m 7/8 0/8 - - -
Fr, 19.07. 20:00 1140 m 7/8 5/8 - - -
Fr, 19.07. 14:00 840 m 7/8 7/8 - - -
Fr, 19.07. 8:00 1110 m 8/8 8/8 - - -
Fr, 19.07. 2:00 1800 m 8/8 2/8 - - -
Do, 18.07. 20:00 3000 m 8/8 8/8 - - -
Do, 18.07. 14:00 2100 m 7/8 3/8 - - -
Do, 18.07. 8:00 4500 m 8/8 8/8 - - -
Ortszeit Bedeckungsgrad in Achtel und Wolkenuntergrenze
Sa, 20.07. 7:00 3(10500m)
Sa, 20.07. 6:30 2(9000m) 3(9000m)
Sa, 20.07. 6:20 2(9000m) 3(9000m)
Sa, 20.07. 6:10 keine Wolken
Sa, 20.07. 6:00 1(9000m)
Sa, 20.07. 5:50 1(9000m)
Sa, 20.07. 5:30 2(9000m)
Sa, 20.07. 5:00 keine Wolken
Sa, 20.07. 4:30 keine Wolken
Sa, 20.07. 4:00 keine Wolken
Sa, 20.07. 3:30 6(9000m) 6(10500m)
Ortszeit Luftdruck NN (hPa) Tendenz (hPa in 3 Std.)
Sa, 20.07. 2:00 1015 - 0,4
Fr, 19.07. 20:00 1014 - 0,6
Fr, 19.07. 14:00 1015 - 0,2
Fr, 19.07. 8:00 1015 + 0,8
Fr, 19.07. 2:00 1014 + 0,3
Do, 18.07. 20:00 1012 + 0,8
Do, 18.07. 14:00 1011 - 0,5
Do, 18.07. 8:00 1013 + 0,1
Ortszeit Luftdruck NN (hPa) Tendenz (hPa in 3 Std.)
Sa, 20.07. 7:00 1013 - 0,5
Sa, 20.07. 6:30 1013 - 0,8
Sa, 20.07. 6:20 1013 keine Meldung
Sa, 20.07. 6:10 1013 keine Meldung
Sa, 20.07. 6:00 1013 - 1,1
Sa, 20.07. 5:50 1013 keine Meldung
Sa, 20.07. 5:30 1014 - 0,9
Sa, 20.07. 5:00 1014 - 1,0
Sa, 20.07. 4:30 1014 - 1,0
Sa, 20.07. 4:00 1014 - 1,0
Sa, 20.07. 3:30 1014 - 0,9
Ortszeit Schneehöhe (cm)
Sa, 20.07. 2:00 -
Fr, 19.07. 20:00 -
Fr, 19.07. 14:00 -
Fr, 19.07. 8:00 -
Fr, 19.07. 2:00 -
Do, 18.07. 20:00 -
Do, 18.07. 14:00 -
Do, 18.07. 8:00 -
Ortszeit Schneehöhe (cm)
Sa, 20.07. 7:00 -
Sa, 20.07. 6:30 -
Sa, 20.07. 6:20 -
Sa, 20.07. 6:10 -
Sa, 20.07. 6:00 -
Sa, 20.07. 5:50 -
Sa, 20.07. 5:30 -
Sa, 20.07. 5:00 -
Sa, 20.07. 4:30 -
Sa, 20.07. 4:00 -
Sa, 20.07. 3:30 -
Link zu dieser Seite / Seite empfehlen

Das Wetter in ...